Back to Top

Language: 

My Weather Underground Personal Weather Station Historical Data with Graphs...

Delerius Weather Station Historical Data
Daily Summary for January 17, 2018 Units:  Metric    English   Both
« Previous Day
Next Day »
Daily Weekly Monthly Yearly Custom
  High: Low: Average:
Temperature: 5.6 °C 1 °C 3.3 °C
Dew Point: 2.5 °C -0.3 °C 1.6 °C
Humidity: 95 % 79 % 89 %
Wind Speed: 38.6 km/h 4.8 km/h 19.2 km/h
Wind Gust: 59.5 km/h - -
Wind:- - WSW
Pressure: 1002.9 hPa 988 hPa -
Precipitation: 7.62 mm    
Historical Graphs
 
 
Tabular Data for January 17, 2018
Time Temperature Dew Point Pressure Wind Wind Speed Wind Gust Humidity Rainfall Rate (Hourly) solar Conditions
00:30 1.3 °C 0 °C 990.1 hPa West 14.5 km/h 24.1 km/h 91 % 0 mm 0 W/m2
01:02 1.2 °C -0.3 °C 990.1 hPa WNW 22.5 km/h 35.4 km/h 90 % 0 mm 0 W/m2
01:17 1 °C -0.2 °C 990.1 hPa West 19.3 km/h 35.4 km/h 92 % 0 mm 0 W/m2
01:39 1.2 °C 0.1 °C 990.4 hPa West 20.9 km/h 30.6 km/h 92 % 0 mm 0 W/m2
02:37 1.4 °C 0.4 °C 991.1 hPa West 32.2 km/h 56.3 km/h 93 % 0.25 mm 0 W/m2
02:43 1.5 °C 0.5 °C 990.7 hPa West 29 km/h 43.5 km/h 93 % 0.25 mm 0 W/m2
02:49 1.4 °C 0.4 °C 991.1 hPa West 24.1 km/h 38.6 km/h 93 % 0.25 mm 0 W/m2
02:55 1.5 °C 0.5 °C 990.7 hPa West 24.1 km/h 40.2 km/h 93 % 0.25 mm 0 W/m2
03:16 2 °C 0.6 °C 990.7 hPa West 32.2 km/h 48.3 km/h 90 % 0.25 mm 0 W/m2
03:28 2.1 °C 0.6 °C 991.8 hPa West 32.2 km/h 48.3 km/h 90 % 0.51 mm 0 W/m2
03:33 1.9 °C 0.6 °C 992.1 hPa WNW 33.8 km/h 48.3 km/h 91 % 0.51 mm 0 W/m2
03:41 1.8 °C 0.6 °C 992.1 hPa WNW 17.7 km/h 32.2 km/h 92 % 0.51 mm 0 W/m2
03:47 1.8 °C 0.6 °C 992.4 hPa West 22.5 km/h 35.4 km/h 92 % 0.51 mm 0 W/m2
04:00 1.8 °C 0.8 °C 992.1 hPa West 24.1 km/h 40.2 km/h 93 % 0.76 mm 0 W/m2
04:09 1.9 °C 0.7 °C 992.1 hPa WNW 27.4 km/h 40.2 km/h 92 % 1.02 mm 0 W/m2
04:20 2.2 °C 0.9 °C 992.4 hPa WNW 27.4 km/h 41.8 km/h 91 % 1.02 mm 0 W/m2
04:21 2.2 °C 0.9 °C 992.8 hPa WNW 24.1 km/h 33.8 km/h 91 % 1.02 mm 0 W/m2
04:37 2.2 °C 0.7 °C 993.1 hPa WNW 24.1 km/h 45.1 km/h 90 % 0.76 mm 0 W/m2
04:46 2.3 °C 1 °C 993.1 hPa WNW 27.4 km/h 48.3 km/h 91 % 0.51 mm 0 W/m2
04:53 2.2 °C 0.9 °C 993.1 hPa WNW 25.7 km/h 38.6 km/h 91 % 0.51 mm 0 W/m2
05:02 2.3 °C 1 °C 993.5 hPa WNW 27.4 km/h 41.8 km/h 91 % 0.51 mm 0 W/m2
05:31 2.4 °C 1.1 °C 994.5 hPa West 29 km/h 48.3 km/h 91 % 0.51 mm 0 W/m2
05:48 2.4 °C 1.1 °C 994.8 hPa West 25.7 km/h 48.3 km/h 91 % 0.51 mm 0 W/m2
06:13 1.9 °C 0.7 °C 995.1 hPa WNW 27.4 km/h 41.8 km/h 92 % 0.51 mm 0 W/m2
06:36 2.3 °C 0.8 °C 996.2 hPa WNW 25.7 km/h 41.8 km/h 90 % 0.76 mm 0 W/m2
06:51 2.6 °C 1.1 °C 996.2 hPa West 24.1 km/h 40.2 km/h 90 % 0.51 mm 0 W/m2
07:07 2.9 °C 1.3 °C 996.5 hPa WNW 35.4 km/h 49.9 km/h 89 % 0.51 mm 0 W/m2
07:20 2.8 °C 1.3 °C 997.2 hPa WNW 27.4 km/h 43.5 km/h 90 % 0.51 mm 0 W/m2
07:28 2.9 °C 1.4 °C 997.2 hPa WNW 29 km/h 48.3 km/h 90 % 0.51 mm 0 W/m2
07:43 3.1 °C 1.4 °C 997.9 hPa WNW 25.7 km/h 43.5 km/h 89 % 0.76 mm 0 W/m2
08:03 3.3 °C 1.2 °C 998.2 hPa West 32.2 km/h 51.5 km/h 86 % 0.76 mm 0 W/m2
08:39 3.3 °C 1.3 °C 998.5 hPa West 29 km/h 43.5 km/h 87 % 0.51 mm 14 W/m2
08:49 3.4 °C 1.3 °C 998.5 hPa West 29 km/h 43.5 km/h 86 % 0.51 mm 30 W/m2
09:01 3.7 °C 1.2 °C 998.5 hPa West 35.4 km/h 57.9 km/h 84 % 0.51 mm 30 W/m2
09:10 3.9 °C 1.3 °C 998.9 hPa West 35.4 km/h 51.5 km/h 83 % 0.51 mm 37 W/m2
09:23 3.9 °C 1.4 °C 999.5 hPa West 35.4 km/h 53.1 km/h 84 % 0.51 mm 53 W/m2
09:28 4 °C 1.6 °C 999.5 hPa West 38.6 km/h 59.5 km/h 84 % 0.51 mm 70 W/m2
09:34 3.9 °C 1.4 °C 999.9 hPa West 32.2 km/h 46.7 km/h 84 % 0.51 mm 113 W/m2
09:39 3.9 °C 1.4 °C 999.9 hPa West 30.6 km/h 56.3 km/h 84 % 0.51 mm 74 W/m2
09:44 3.8 °C 1.5 °C 999.9 hPa West 30.6 km/h 46.7 km/h 85 % 0.51 mm 135 W/m2
09:54 4.1 °C 1.8 °C 1000.2 hPa West 33.8 km/h 51.5 km/h 85 % 0.51 mm 207 W/m2
09:59 4.3 °C 2 °C 1000.6 hPa West 33.8 km/h 45.1 km/h 85 % 0.51 mm 223 W/m2
10:08 4.6 °C 1.9 °C 1000.9 hPa West 33.8 km/h 48.3 km/h 83 % 0.51 mm 188 W/m2
10:15 4.7 °C 2.1 °C 1000.9 hPa West 30.6 km/h 45.1 km/h 83 % 0.51 mm 250 W/m2
10:27 4.8 °C 2 °C 1001.2 hPa West 25.7 km/h 40.2 km/h 82 % 0.51 mm 47 W/m2
10:35 4.7 °C 1.9 °C 1001.2 hPa West 32.2 km/h 51.5 km/h 82 % 0.51 mm 81 W/m2
10:42 4.9 °C 2.1 °C 1001.2 hPa West 27.4 km/h 46.7 km/h 82 % 0.25 mm 216 W/m2
10:48 4.9 °C 2.1 °C 1001.2 hPa West 24.1 km/h 37 km/h 82 % 0.25 mm 225 W/m2
11:15 5.1 °C 2.3 °C 1001.9 hPa West 25.7 km/h 40.2 km/h 82 % 0 mm 181 W/m2
11:41 5.5 °C 2.3 °C 1001.9 hPa West 29 km/h 45.1 km/h 80 % 0 mm 155 W/m2
11:49 5.2 °C 2.2 °C 1001.9 hPa West 17.7 km/h 29 km/h 81 % 0 mm 281 W/m2
12:06 5.3 °C 2.5 °C 1001.9 hPa West 24.1 km/h 37 km/h 82 % 0 mm 295 W/m2
12:14 5.5 °C 2.3 °C 1001.9 hPa West 25.7 km/h 41.8 km/h 80 % 0 mm 290 W/m2
12:32 5.6 °C 2.2 °C 1002.3 hPa West 20.9 km/h 33.8 km/h 79 % 0 mm 197 W/m2
12:40 5.2 °C 1.8 °C 1002.3 hPa West 25.7 km/h 40.2 km/h 79 % 0 mm 58 W/m2
12:45 5.1 °C 2.1 °C 1002.6 hPa West 17.7 km/h 29 km/h 81 % 0 mm 199 W/m2
12:51 5.1 °C 2.3 °C 1002.3 hPa West 20.9 km/h 32.2 km/h 82 % 0 mm 160 W/m2
13:02 5.1 °C 1.9 °C 1002.3 hPa West 19.3 km/h 30.6 km/h 80 % 0 mm 86 W/m2
13:09 5.1 °C 2.1 °C 1002.6 hPa West 19.3 km/h 33.8 km/h 81 % 0 mm 269 W/m2
13:22 4.9 °C 2.1 °C 1002.9 hPa West 27.4 km/h 40.2 km/h 82 % 0 mm 63 W/m2
13:30 4.7 °C 2.2 °C 1002.6 hPa WNW 24.1 km/h 37 km/h 84 % 0 mm 74 W/m2
13:37 4.5 °C 2.5 °C 1002.6 hPa West 20.9 km/h 38.6 km/h 87 % 0 mm 118 W/m2
13:59 4.2 °C 2.1 °C 1002.6 hPa West 19.3 km/h 32.2 km/h 86 % 0 mm 197 W/m2
14:05 4.3 °C 2.2 °C 1002.6 hPa WSW 16.1 km/h 24.1 km/h 86 % 0 mm 174 W/m2
14:10 4.4 °C 2.1 °C 1002.6 hPa West 17.7 km/h 29 km/h 85 % 0 mm 123 W/m2
14:23 4.4 °C 2.1 °C 1002.6 hPa West 20.9 km/h 37 km/h 85 % 0 mm 21 W/m2
14:45 4.4 °C 2.4 °C 1002.6 hPa West 14.5 km/h 24.1 km/h 87 % 0.25 mm 84 W/m2
14:50 4.4 °C 2.3 °C 1002.6 hPa West 16.1 km/h 22.5 km/h 86 % 0.25 mm 28 W/m2
14:56 4.3 °C 2.2 °C 1002.6 hPa West 19.3 km/h 29 km/h 86 % 0.25 mm 21 W/m2
15:03 4.3 °C 2.2 °C 1002.6 hPa West 16.1 km/h 24.1 km/h 86 % 0.25 mm 86 W/m2
15:34 4 °C 2.2 °C 1002.9 hPa WSW 11.3 km/h 17.7 km/h 88 % 0 mm 19 W/m2
15:42 3.9 °C 2.1 °C 1002.9 hPa West 12.9 km/h 20.9 km/h 88 % 0 mm 42 W/m2
15:51 4 °C 2.1 °C 1002.6 hPa WSW 12.9 km/h 19.3 km/h 87 % 0 mm 16 W/m2
15:58 4.1 °C 2.1 °C 1002.6 hPa WSW 14.5 km/h 24.1 km/h 87 % 0 mm 9 W/m2
16:04 4.2 °C 2.1 °C 1002.6 hPa West 17.7 km/h 30.6 km/h 86 % 0 mm 0 W/m2
16:25 4.1 °C 2.3 °C 1002.9 hPa WSW 25.7 km/h 38.6 km/h 88 % 0 mm 0 W/m2
16:37 3.8 °C 2.2 °C 1002.9 hPa WSW 16.1 km/h 22.5 km/h 89 % 0 mm 0 W/m2
16:50 3.8 °C 2.2 °C 1002.6 hPa WSW 16.1 km/h 29 km/h 89 % 0 mm 0 W/m2
16:56 3.8 °C 2.2 °C 1002.9 hPa West 14.5 km/h 25.7 km/h 89 % 0 mm 0 W/m2
17:05 3.8 °C 2 °C 1002.9 hPa WSW 19.3 km/h 32.2 km/h 88 % 0 mm 0 W/m2
17:11 3.9 °C 2.1 °C 1002.6 hPa WSW 22.5 km/h 33.8 km/h 88 % 0 mm 0 W/m2
17:26 3.7 °C 2.1 °C 1002.6 hPa WSW 12.9 km/h 19.3 km/h 89 % 0 mm 0 W/m2
17:32 3.7 °C 2.1 °C 1002.6 hPa WSW 16.1 km/h 25.7 km/h 89 % 0 mm 0 W/m2
17:38 3.7 °C 2.1 °C 1002.3 hPa WSW 12.9 km/h 19.3 km/h 89 % 0 mm 0 W/m2
17:44 3.6 °C 1.9 °C 1002.3 hPa WSW 11.3 km/h 16.1 km/h 89 % 0.25 mm 0 W/m2
17:55 3.6 °C 1.9 °C 1002.3 hPa WSW 17.7 km/h 29 km/h 89 % 0.25 mm 0 W/m2
18:13 3.8 °C 2 °C 1002.3 hPa WSW 14.5 km/h 20.9 km/h 88 % 0.25 mm 0 W/m2
18:21 3.9 °C 1.9 °C 1001.9 hPa WSW 17.7 km/h 33.8 km/h 87 % 0.25 mm 0 W/m2
18:28 4.1 °C 1.9 °C 1001.9 hPa SW 16.1 km/h 24.1 km/h 86 % 0.25 mm 0 W/m2
18:40 4.2 °C 1.7 °C 1001.9 hPa WSW 24.1 km/h 35.4 km/h 84 % 0.25 mm 0 W/m2
18:46 4.3 °C 1.8 °C 1001.9 hPa WSW 20.9 km/h 32.2 km/h 84 % 0 mm 0 W/m2
19:02 4.1 °C 1.8 °C 1001.6 hPa WSW 12.9 km/h 22.5 km/h 85 % 0 mm 0 W/m2
19:07 3.9 °C 1.8 °C 1001.2 hPa WSW 9.7 km/h 20.9 km/h 86 % 0 mm 0 W/m2
19:38 4.2 °C 1.7 °C 1000.9 hPa WSW 11.3 km/h 17.7 km/h 84 % 0 mm 0 W/m2
19:43 4.2 °C 1.7 °C 1000.9 hPa SW 16.1 km/h 22.5 km/h 84 % 0 mm 0 W/m2
19:48 4.2 °C 1.7 °C 1000.6 hPa WSW 17.7 km/h 30.6 km/h 84 % 0 mm 0 W/m2
19:53 4.2 °C 1.7 °C 1000.9 hPa SW 17.7 km/h 25.7 km/h 84 % 0 mm 0 W/m2
19:58 4.2 °C 1.9 °C 1000.6 hPa SW 14.5 km/h 19.3 km/h 85 % 0 mm 0 W/m2
20:03 4.1 °C 1.8 °C 1000.6 hPa WSW 16.1 km/h 25.7 km/h 85 % 0 mm 0 W/m2
20:08 4.1 °C 1.8 °C 1000.2 hPa SW 17.7 km/h 25.7 km/h 85 % 0 mm 0 W/m2
20:13 4 °C 1.9 °C 1000.2 hPa WSW 14.5 km/h 22.5 km/h 86 % 0 mm 0 W/m2
20:18 3.9 °C 1.8 °C 999.9 hPa SW 16.1 km/h 24.1 km/h 86 % 0 mm 0 W/m2
20:23 3.9 °C 1.9 °C 999.9 hPa SW 19.3 km/h 30.6 km/h 87 % 0 mm 0 W/m2
20:29 3.8 °C 1.8 °C 999.5 hPa SW 14.5 km/h 19.3 km/h 87 % 0 mm 0 W/m2
20:35 3.7 °C 1.9 °C 999.5 hPa SW 14.5 km/h 20.9 km/h 88 % 0 mm 0 W/m2
20:37 3.7 °C 1.9 °C 999.5 hPa SW 16.1 km/h 20.9 km/h 88 % 0 mm 0 W/m2
20:41 3.6 °C 1.9 °C 999.5 hPa SW 14.5 km/h 24.1 km/h 89 % 0 mm 0 W/m2
20:44 3.6 °C 1.9 °C 999.2 hPa SW 16.1 km/h 22.5 km/h 89 % 0 mm 0 W/m2
20:46 3.5 °C 1.8 °C 999.2 hPa SW 14.5 km/h 22.5 km/h 89 % 0 mm 0 W/m2
20:51 3.4 °C 1.9 °C 998.9 hPa SW 16.1 km/h 25.7 km/h 90 % 0 mm 0 W/m2
20:56 3.3 °C 1.8 °C 998.9 hPa SW 11.3 km/h 19.3 km/h 90 % 0 mm 0 W/m2
21:01 3.3 °C 1.8 °C 998.9 hPa SW 11.3 km/h 17.7 km/h 90 % 0 mm 0 W/m2
21:05 3.3 °C 1.8 °C 998.9 hPa SW 11.3 km/h 17.7 km/h 90 % 0 mm 0 W/m2
21:10 3.2 °C 1.9 °C 998.5 hPa SW 9.7 km/h 14.5 km/h 91 % 0 mm 0 W/m2
21:12 3.2 °C 1.9 °C 998.5 hPa SSW 8 km/h 12.9 km/h 91 % 0 mm 0 W/m2
21:17 3.2 °C 1.9 °C 998.2 hPa SSW 11.3 km/h 17.7 km/h 91 % 0 mm 0 W/m2
21:19 3.2 °C 1.9 °C 998.2 hPa SSW 8 km/h 14.5 km/h 91 % 0 mm 0 W/m2
21:20 3.2 °C 1.9 °C 998.2 hPa SSW 9.7 km/h 14.5 km/h 91 % 0 mm 0 W/m2
21:21 3.2 °C 1.9 °C 998.2 hPa SSW 9.7 km/h 11.3 km/h 91 % 0 mm 0 W/m2
21:25 3.1 °C 1.8 °C 998.2 hPa SSW 8 km/h 12.9 km/h 91 % 0 mm 0 W/m2
21:26 3.1 °C 1.8 °C 998.2 hPa SSW 8 km/h 12.9 km/h 91 % 0 mm 0 W/m2
21:27 3.1 °C 1.8 °C 998.2 hPa SSW 6.4 km/h 12.9 km/h 91 % 0 mm 0 W/m2
21:32 3.1 °C 1.9 °C 997.9 hPa SSW 11.3 km/h 17.7 km/h 92 % 0 mm 0 W/m2
21:34 3.1 °C 1.9 °C 997.9 hPa SSW 8 km/h 17.7 km/h 92 % 0 mm 0 W/m2
21:39 3.1 °C 1.9 °C 997.5 hPa SSW 8 km/h 14.5 km/h 92 % 0.25 mm 0 W/m2
21:45 3 °C 1.8 °C 997.2 hPa SSW 6.4 km/h 12.9 km/h 92 % 0.25 mm 0 W/m2
21:48 3 °C 1.8 °C 996.8 hPa SSW 11.3 km/h 20.9 km/h 92 % 0.25 mm 0 W/m2
21:50 3 °C 1.8 °C 996.8 hPa SSW 9.7 km/h 20.9 km/h 92 % 0.25 mm 0 W/m2
21:55 3 °C 1.8 °C 996.8 hPa South 8 km/h 12.9 km/h 92 % 0.25 mm 0 W/m2
22:00 3 °C 1.8 °C 996.2 hPa South 4.8 km/h 11.3 km/h 92 % 0.25 mm 0 W/m2
22:05 2.9 °C 1.7 °C 996.2 hPa South 8 km/h 12.9 km/h 92 % 0.25 mm 0 W/m2
22:10 2.9 °C 1.7 °C 995.8 hPa SSE 9.7 km/h 17.7 km/h 92 % 0.51 mm 0 W/m2
22:15 2.8 °C 1.6 °C 995.5 hPa South 11.3 km/h 16.1 km/h 92 % 0.51 mm 0 W/m2
22:20 2.8 °C 1.8 °C 994.8 hPa SSE 12.9 km/h 19.3 km/h 93 % 0.51 mm 0 W/m2
22:25 2.6 °C 1.6 °C 994.5 hPa South 16.1 km/h 30.6 km/h 93 % 0.51 mm 0 W/m2
22:30 2.4 °C 1.4 °C 994.1 hPa SSE 14.5 km/h 24.1 km/h 93 % 0.76 mm 0 W/m2
22:35 2.3 °C 1.3 °C 993.8 hPa SSE 14.5 km/h 25.7 km/h 93 % 0.76 mm 0 W/m2
22:40 2.2 °C 1.2 °C 993.1 hPa SSE 16.1 km/h 30.6 km/h 93 % 0.76 mm 0 W/m2
22:45 2.2 °C 1.2 °C 993.1 hPa South 16.1 km/h 32.2 km/h 93 % 1.02 mm 0 W/m2
22:50 2.1 °C 1.2 °C 992.8 hPa SSE 11.3 km/h 19.3 km/h 94 % 1.27 mm 0 W/m2
22:55 1.9 °C 1.1 °C 992.4 hPa SSE 16.1 km/h 25.7 km/h 94 % 1.52 mm 0 W/m2
23:00 1.8 °C 0.9 °C 992.1 hPa SSE 14.5 km/h 24.1 km/h 94 % 1.52 mm 0 W/m2
23:05 1.7 °C 0.8 °C 991.8 hPa SSE 16.1 km/h 25.7 km/h 94 % 1.52 mm 0 W/m2
23:10 1.6 °C 0.7 °C 991.4 hPa SSE 12.9 km/h 19.3 km/h 94 % 1.52 mm 0 W/m2
23:15 1.5 °C 0.7 °C 991.1 hPa SSE 14.5 km/h 22.5 km/h 94 % 1.52 mm 0 W/m2
23:20 1.5 °C 0.7 °C 990.7 hPa SSE 16.1 km/h 24.1 km/h 94 % 1.52 mm 0 W/m2
23:25 1.4 °C 0.6 °C 990.4 hPa SSE 12.9 km/h 20.9 km/h 94 % 1.52 mm 0 W/m2
23:30 1.4 °C 0.7 °C 990.1 hPa SSE 14.5 km/h 20.9 km/h 95 % 1.52 mm 0 W/m2
23:35 1.5 °C 0.8 °C 989.7 hPa SE 16.1 km/h 24.1 km/h 95 % 1.52 mm 0 W/m2
23:40 1.4 °C 0.7 °C 989.4 hPa SSE 14.5 km/h 24.1 km/h 95 % 1.52 mm 0 W/m2
23:45 1.4 °C 0.7 °C 989.1 hPa SSE 12.9 km/h 20.9 km/h 95 % 1.27 mm 0 W/m2
23:47 1.4 °C 0.7 °C 988.7 hPa SSE 12.9 km/h 20.9 km/h 95 % 1.27 mm 0 W/m2
23:52 1.4 °C 0.7 °C 988.7 hPa SSE 12.9 km/h 24.1 km/h 95 % 1.27 mm 0 W/m2
23:57 1.6 °C 0.9 °C 988 hPa SSE 11.3 km/h 20.9 km/h 95 % 1.02 mm 0 W/m2
Delerius-Weather
Compliments of Weather Underground - 1.5 mb

Data updates at regular intervals.